Terminal Aerodrome Forecast
Issued by NWS Wichita, KS

Home | Current Version | Previous Version | Graphics & Text | Print | Product List | Glossary On
Versions: 1 2 3 4 5 6 7 8 9 10 11 12 13 14 15 16 17 18
000
FTUS43 KICT 300520
TAFICT
TAF
KICT 300520Z 3006/3106 05008KT P6SM SCT100 SCT200
     FM301100 08006KT P6SM -SHRA VCSH BKN060
     FM301700 11008KT P6SM SCT040 SCT200=

USA.gov is the U.S. government's official web portal to all federal, state and local government web resources and services.